createdAt,value
2023-01-13T07:13:19.872Z,100689.06
2023-01-13T07:16:24.189Z,100689.06
2023-01-13T07:19:26.423Z,100699.25
2023-01-13T07:22:29.036Z,100696.66
2023-01-13T07:25:32.470Z,100698.31
2023-01-13T07:28:36.522Z,100691.13
2023-01-13T07:31:39.848Z,100698.66
2023-01-13T07:34:42.570Z,100699.53
2023-01-13T07:37:44.927Z,100701.94
2023-01-13T07:40:47.661Z,100703.47
2023-01-13T07:43:51.449Z,100697.81
2023-01-13T07:46:53.909Z,100708.16
2023-01-13T07:49:56.155Z,100705.53
2023-01-13T07:52:58.792Z,100704.53
2023-01-13T07:56:01.429Z,100717.78
2023-01-13T07:59:05.666Z,100718.94
2023-01-13T08:02:11.172Z,100722.28
2023-01-13T08:05:14.084Z,100721.59
2023-01-13T08:08:16.446Z,100728.31
2023-01-13T08:11:19.113Z,100728.16
2023-01-13T08:14:23.037Z,100732.94
2023-01-13T08:17:25.749Z,100729.00
2023-01-13T08:20:28.224Z,100725.31
2023-01-13T08:23:30.949Z,100726.47
2023-01-13T08:26:33.290Z,100735.03
2023-01-13T08:29:37.315Z,100729.81
2023-01-13T08:32:39.708Z,100736.03
2023-01-13T08:35:42.426Z,100743.25
2023-01-13T08:38:44.832Z,100744.59
2023-01-13T08:41:56.298Z,100735.81
2023-01-13T08:44:59.978Z,100752.25
2023-01-13T08:48:02.706Z,100758.25
2023-01-13T08:51:06.472Z,100763.97
2023-01-13T08:54:08.914Z,100762.13
2023-01-13T08:57:11.277Z,100759.44
2023-01-13T09:00:17.103Z,100767.19
2023-01-13T09:03:19.657Z,100764.28
2023-01-13T09:06:22.355Z,100774.84
2023-01-13T09:09:26.864Z,100762.56
2023-01-13T09:12:47.933Z,100762.94
2023-01-13T09:15:52.585Z,100766.66
2023-01-13T09:18:55.296Z,100773.88
2023-01-13T09:21:57.870Z,100773.34
2023-01-13T09:25:00.525Z,100758.53
2023-01-13T09:28:04.957Z,100752.47
2023-01-13T09:31:09.013Z,100756.84
2023-01-13T09:34:32.399Z,100751.63
2023-01-13T09:37:36.130Z,100746.41
2023-01-13T09:40:38.506Z,100748.66
2023-01-13T09:43:56.173Z,100738.53
2023-01-13T09:47:01.950Z,100739.72
2023-01-13T09:50:15.515Z,100733.56
2023-01-13T09:53:19.744Z,100741.75
2023-01-13T09:56:22.590Z,100738.41
2023-01-13T09:59:26.507Z,100727.44
2023-01-13T10:02:39.331Z,100733.13
2023-01-13T10:05:43.672Z,100737.16
2023-01-13T10:08:46.148Z,100737.69
2023-01-13T10:12:07.276Z,100737.84
2023-01-13T10:15:13.725Z,100738.25
2023-01-13T10:18:20.155Z,100736.34
2023-01-13T10:21:33.361Z,100733.03
2023-01-13T10:24:49.061Z,100739.59
2023-01-13T10:27:52.449Z,100740.31
2023-01-13T10:30:55.201Z,100734.16
2023-01-13T10:33:59.678Z,100736.41
2023-01-13T10:37:04.074Z,100729.50
2023-01-13T10:40:12.723Z,100733.06
2023-01-13T10:43:17.046Z,100724.22
2023-01-13T10:46:19.892Z,100725.34
2023-01-13T10:49:28.962Z,100724.87
2023-01-13T10:52:32.843Z,100722.06
2023-01-13T10:55:38.454Z,100720.75
2023-01-13T10:58:40.871Z,100718.34
2023-01-13T11:01:53.144Z,100714.25
2023-01-13T11:05:10.635Z,100705.28
2023-01-13T11:08:16.330Z,100705.09
2023-01-13T11:11:27.268Z,100693.72
2023-01-13T11:14:39.744Z,100695.47
2023-01-13T11:17:45.414Z,100692.03
2023-01-13T11:20:49.420Z,100687.56
2023-01-13T11:23:56.684Z,100684.06
2023-01-13T11:27:00.796Z,100687.63
2023-01-13T11:30:09.656Z,100677.22
2023-01-13T11:33:29.455Z,100674.59
2023-01-13T11:36:33.827Z,100679.22
2023-01-13T11:39:43.020Z,100673.41
2023-01-13T11:42:48.606Z,100655.59
2023-01-13T11:45:53.514Z,100651.25
2023-01-13T11:48:56.384Z,100652.25
2023-01-13T11:52:04.585Z,100650.25
2023-01-13T11:55:15.854Z,100642.28
2023-01-13T11:58:51.321Z,100641.66
2023-01-13T12:02:04.814Z,100633.09
2023-01-13T12:05:10.707Z,100627.91
2023-01-13T12:08:18.183Z,100629.72
2023-01-13T12:11:24.493Z,100628.72
2023-01-13T12:14:31.323Z,100628.13
2023-01-13T12:17:37.231Z,100621.72
2023-01-13T12:20:42.927Z,100607.84
2023-01-13T12:23:51.931Z,100609.50
2023-01-13T12:26:56.944Z,100607.63
2023-01-13T12:29:59.926Z,100598.22
2023-01-13T12:33:06.844Z,100595.31
2023-01-13T12:36:12.025Z,100576.72
2023-01-13T12:39:18.552Z,100574.84
2023-01-13T12:42:42.628Z,100569.50
2023-01-13T12:45:45.062Z,100572.34
2023-01-13T12:49:05.956Z,100573.25
2023-01-13T12:52:13.823Z,100563.25
2023-01-13T12:55:19.436Z,100567.72
2023-01-13T12:58:26.298Z,100564.16
2023-01-13T13:01:34.658Z,100566.16
2023-01-13T13:04:44.228Z,100560.34
2023-01-13T13:07:47.449Z,100566.09
2023-01-13T13:11:01.671Z,100570.47
2023-01-13T13:14:04.685Z,100576.53
2023-01-13T13:17:41.344Z,100565.69
2023-01-13T13:21:04.876Z,100584.88
2023-01-13T13:24:10.195Z,100586.53
2023-01-13T13:27:18.113Z,100590.09
2023-01-13T13:30:21.530Z,100593.63
2023-01-13T13:33:48.040Z,100587.94
2023-01-13T13:37:21.287Z,100588.66
2023-01-13T13:40:42.831Z,100590.72
2023-01-13T13:44:05.118Z,100605.34
2023-01-13T13:47:07.845Z,100609.41
2023-01-13T13:50:14.273Z,100598.88
2023-01-13T13:53:18.312Z,100606.63
2023-01-13T13:56:23.006Z,100609.63
2023-01-13T13:59:30.565Z,100613.09
2023-01-13T14:02:35.848Z,100608.28
2023-01-13T14:05:39.469Z,100607.44
2023-01-13T14:08:46.661Z,100599.50
2023-01-13T14:12:00.347Z,100598.66
2023-01-13T14:15:05.141Z,100599.50
2023-01-13T14:18:11.727Z,100610.03
2023-01-13T14:21:19.237Z,100606.37
2023-01-13T14:24:22.533Z,100604.31
2023-01-13T14:27:27.337Z,100612.03
2023-01-13T14:30:31.306Z,100609.94
2023-01-13T14:33:34.889Z,100609.13
2023-01-13T14:36:37.611Z,100619.56
2023-01-13T14:39:40.607Z,100613.19
2023-01-13T14:42:43.267Z,100608.50
2023-01-13T14:45:56.442Z,100614.53
2023-01-13T14:49:00.473Z,100603.47
2023-01-13T14:52:07.264Z,100614.97
2023-01-13T14:55:31.132Z,100611.62
2023-01-13T14:58:33.650Z,100617.06
2023-01-13T15:01:39.397Z,100612.66
2023-01-13T15:04:41.976Z,100620.16
2023-01-13T15:07:48.787Z,100622.06
2023-01-13T15:10:52.864Z,100633.13
2023-01-13T15:13:57.621Z,100624.88
2023-01-13T15:17:01.377Z,100625.84
2023-01-13T15:20:06.420Z,100612.88
2023-01-13T15:23:08.569Z,100622.97
2023-01-13T15:26:18.166Z,100617.47
2023-01-13T15:29:20.619Z,100619.13
2023-01-13T15:32:24.652Z,100609.28
2023-01-13T15:35:28.022Z,100608.56
2023-01-13T15:38:30.700Z,100609.72
2023-01-13T15:41:51.557Z,100608.25
2023-01-13T15:45:12.989Z,100613.34
2023-01-13T15:48:16.779Z,100605.94
2023-01-13T15:51:19.772Z,100615.56
2023-01-13T15:54:24.480Z,100618.91
2023-01-13T15:57:27.843Z,100612.81
2023-01-13T16:00:30.306Z,100614.50
2023-01-13T16:03:34.400Z,100610.13
2023-01-13T16:12:37.580Z,100618.50
2023-01-13T16:15:42.731Z,100618.50
2023-01-13T16:18:45.073Z,100626.59
2023-01-13T16:21:47.790Z,100624.50
2023-01-13T16:24:50.230Z,100624.41
2023-01-13T16:27:54.461Z,100613.87
2023-01-13T16:30:56.836Z,100616.06
2023-01-13T16:33:59.917Z,100615.12
2023-01-13T16:37:02.351Z,100610.13
2023-01-13T16:40:05.852Z,100613.69
2023-01-13T16:43:11.477Z,100604.47
2023-01-13T16:46:22.644Z,100604.97
2023-01-13T16:49:25.043Z,100610.94
2023-01-13T16:52:27.749Z,100612.50
